createdAt,value
2023-04-16T00:01:31.331Z,100.00
2023-04-16T00:08:13.694Z,100.00
2023-04-16T00:14:55.814Z,100.00
2023-04-16T00:21:38.054Z,100.00
2023-04-16T00:28:20.509Z,100.00
2023-04-16T00:35:02.712Z,100.00
2023-04-16T00:41:46.306Z,100.00
2023-04-16T00:48:28.547Z,100.00
2023-04-16T00:55:13.475Z,100.00
2023-04-16T01:01:55.837Z,100.00
2023-04-16T01:08:38.227Z,100.00
2023-04-16T01:15:20.521Z,100.00
2023-04-16T01:22:04.107Z,100.00
2023-04-16T01:28:46.534Z,100.00
2023-04-16T01:35:28.958Z,100.00
2023-04-16T01:42:11.518Z,100.00
2023-04-16T01:48:54.977Z,100.00
2023-04-16T01:55:37.184Z,100.00
2023-04-16T02:02:19.812Z,100.00
2023-04-16T02:09:02.133Z,100.00
2023-04-16T02:15:48.876Z,100.00
2023-04-16T02:22:36.666Z,100.00
2023-04-16T02:29:21.181Z,100.00
2023-04-16T02:36:11.263Z,100.00
2023-04-16T02:42:54.258Z,100.00
2023-04-16T02:49:36.587Z,100.00
2023-04-16T02:56:18.855Z,100.00
2023-04-16T03:03:01.324Z,100.00
2023-04-16T03:09:44.066Z,100.00
2023-04-16T03:16:26.211Z,100.00
2023-04-16T03:23:08.470Z,100.00
2023-04-16T03:29:51.042Z,100.00
2023-04-16T03:36:33.400Z,100.00
2023-04-16T03:43:15.687Z,100.00
2023-04-16T03:49:58.831Z,100.00
2023-04-16T03:56:43.140Z,100.00
2023-04-16T04:03:26.289Z,100.00
2023-04-16T04:10:10.651Z,100.00
2023-04-16T04:16:56.115Z,100.00
2023-04-16T04:23:38.397Z,100.00
2023-04-16T04:30:22.098Z,100.00
2023-04-16T04:37:04.450Z,100.00
2023-04-16T04:43:47.397Z,100.00
2023-04-16T04:50:30.586Z,100.00
2023-04-16T04:57:13.346Z,100.00
2023-04-16T05:03:56.849Z,100.00
2023-04-16T05:10:39.122Z,100.00
2023-04-16T05:17:21.385Z,100.00
2023-04-16T05:24:03.671Z,100.00
2023-04-16T05:30:46.120Z,100.00
2023-04-16T05:37:28.646Z,100.00
2023-04-16T05:44:11.037Z,100.00
2023-04-16T05:50:53.903Z,100.00
2023-04-16T05:57:36.236Z,100.00
2023-04-16T06:04:18.609Z,100.00
2023-04-16T06:11:01.063Z,100.00
2023-04-16T06:17:43.277Z,100.00
2023-04-16T06:24:25.720Z,100.00
2023-04-16T06:31:08.099Z,100.00
2023-04-16T06:37:50.431Z,100.00
2023-04-16T06:44:32.728Z,100.00
2023-04-16T06:51:15.017Z,100.00
2023-04-16T06:57:57.254Z,100.00
2023-04-16T07:04:39.355Z,100.00
2023-04-16T07:11:22.540Z,100.00
2023-04-16T07:18:04.863Z,100.00
2023-04-16T07:24:47.211Z,100.00
2023-04-16T07:31:29.809Z,100.00
2023-04-16T07:38:12.017Z,100.00
2023-04-16T07:44:55.213Z,100.00
2023-04-16T07:51:37.397Z,100.00
2023-04-16T07:58:19.550Z,100.00
2023-04-16T08:05:01.924Z,100.00
2023-04-16T08:11:44.201Z,98.63
2023-04-16T08:18:26.430Z,98.73
2023-04-16T08:25:09.547Z,98.93
2023-04-16T08:31:55.917Z,97.73
2023-04-16T08:38:38.188Z,96.92
2023-04-16T08:45:20.910Z,96.72
2023-04-16T08:52:09.126Z,96.97
2023-04-16T08:58:55.248Z,95.90
2023-04-16T09:05:38.548Z,93.10
2023-04-16T09:12:24.144Z,91.34
2023-04-16T09:19:06.351Z,89.83
2023-04-16T09:25:48.491Z,87.99
2023-04-16T09:32:30.830Z,88.28
2023-04-16T09:39:22.869Z,87.27
2023-04-16T09:46:08.266Z,87.05
2023-04-16T09:52:51.638Z,86.01
2023-04-16T09:59:36.439Z,84.32
2023-04-16T10:06:22.010Z,84.74
2023-04-16T10:13:04.488Z,83.79
2023-04-16T10:19:47.151Z,82.17
2023-04-16T10:26:31.165Z,82.03
2023-04-16T10:33:14.299Z,81.39
2023-04-16T10:39:56.458Z,79.78
2023-04-16T10:46:51.749Z,77.25
2023-04-16T10:53:33.857Z,75.67
2023-04-16T11:00:23.331Z,74.67
2023-04-16T11:07:13.861Z,76.47
2023-04-16T11:13:57.066Z,77.77
2023-04-16T11:20:41.957Z,80.30
2023-04-16T11:27:24.618Z,82.51
2023-04-16T11:34:11.336Z,83.10
2023-04-16T11:40:54.158Z,84.05
2023-04-16T11:47:53.064Z,84.52
2023-04-16T11:54:36.726Z,84.88
2023-04-16T12:01:21.570Z,85.47
2023-04-16T12:08:09.607Z,85.70
2023-04-16T12:14:52.210Z,84.19
2023-04-16T12:21:49.172Z,82.72
2023-04-16T12:28:35.016Z,81.77
2023-04-16T12:35:34.453Z,81.48
2023-04-16T12:42:16.673Z,81.54
2023-04-16T12:48:58.825Z,80.94
2023-04-16T12:55:40.953Z,80.93
2023-04-16T13:02:23.880Z,80.76
2023-04-16T13:09:06.728Z,80.60
2023-04-16T13:15:49.029Z,80.03
2023-04-16T13:22:31.280Z,80.25
2023-04-16T13:29:13.375Z,80.57
2023-04-16T13:35:56.080Z,80.35
2023-04-16T13:42:38.243Z,80.15
2023-04-16T13:49:20.321Z,79.65
2023-04-16T13:56:03.794Z,79.18
2023-04-16T14:02:46.293Z,79.46
2023-04-16T14:09:28.721Z,78.14
2023-04-16T14:16:10.942Z,77.42
2023-04-16T14:22:53.438Z,76.68
2023-04-16T14:29:36.661Z,78.16
2023-04-16T14:36:19.366Z,77.06
2023-04-16T14:43:01.538Z,75.93
2023-04-16T14:49:43.700Z,76.05
2023-04-16T14:56:25.943Z,74.25
2023-04-16T15:03:08.457Z,71.79
2023-04-16T15:09:51.061Z,70.66
2023-04-16T15:16:33.434Z,70.61
2023-04-16T15:23:15.630Z,70.06
2023-04-16T15:29:57.772Z,69.21
2023-04-16T15:36:40.175Z,68.65
2023-04-16T15:43:22.370Z,68.24
2023-04-16T15:50:05.026Z,69.97
2023-04-16T15:56:47.579Z,70.48
2023-04-16T16:03:29.980Z,70.79
2023-04-16T16:10:13.377Z,72.14
2023-04-16T16:16:55.645Z,73.01
2023-04-16T16:23:37.902Z,73.36
2023-04-16T16:30:20.209Z,74.43
2023-04-16T16:37:02.568Z,75.38
2023-04-16T16:43:44.750Z,77.09
2023-04-16T16:50:27.080Z,78.28
2023-04-16T16:57:09.184Z,79.46
2023-04-16T17:03:51.950Z,80.70
2023-04-16T17:10:35.937Z,81.53
2023-04-16T17:17:18.990Z,82.34
2023-04-16T17:24:01.219Z,83.72
2023-04-16T17:30:43.706Z,84.89
2023-04-16T17:37:26.370Z,85.75
2023-04-16T17:44:11.136Z,87.00
2023-04-16T17:50:53.976Z,88.67
2023-04-16T17:57:36.572Z,89.88
2023-04-16T18:04:19.428Z,91.05
2023-04-16T18:11:06.426Z,92.19
2023-04-16T18:17:48.699Z,93.51
2023-04-16T18:24:31.142Z,94.60
2023-04-16T18:31:13.386Z,96.00
2023-04-16T18:37:55.892Z,96.57
2023-04-16T18:44:38.036Z,97.22
2023-04-16T18:51:20.666Z,98.01
2023-04-16T18:58:02.859Z,98.78
2023-04-16T19:04:45.216Z,98.76
2023-04-16T19:11:27.365Z,97.89
2023-04-16T19:18:09.936Z,97.93
2023-04-16T19:24:52.497Z,98.21
2023-04-16T19:31:34.839Z,98.41
2023-04-16T19:38:17.490Z,99.46
2023-04-16T19:44:59.908Z,99.99
2023-04-16T19:51:42.580Z,100.00
2023-04-16T19:58:25.414Z,100.00
2023-04-16T20:05:08.441Z,100.00
2023-04-16T20:11:52.261Z,100.00
2023-04-16T20:18:41.250Z,100.00
2023-04-16T20:25:26.291Z,100.00
2023-04-16T20:32:08.550Z,100.00
2023-04-16T20:38:53.801Z,100.00
2023-04-16T20:45:40.964Z,100.00
2023-04-16T20:52:23.556Z,100.00
2023-04-16T20:59:07.458Z,100.00
2023-04-16T21:05:53.548Z,100.00
2023-04-16T21:12:36.563Z,100.00
2023-04-16T21:19:18.952Z,100.00
2023-04-16T21:26:01.188Z,100.00
2023-04-16T21:32:43.822Z,100.00
2023-04-16T21:39:30.897Z,100.00
2023-04-16T21:46:13.161Z,100.00
2023-04-16T21:52:55.571Z,100.00
2023-04-16T21:59:38.700Z,100.00
2023-04-16T22:06:20.832Z,100.00
2023-04-16T22:13:03.740Z,100.00
2023-04-16T22:19:49.359Z,100.00
2023-04-16T22:26:31.553Z,100.00
2023-04-16T22:33:13.971Z,100.00
2023-04-16T22:39:56.367Z,100.00
2023-04-16T22:46:38.685Z,100.00
2023-04-16T22:53:21.398Z,100.00
2023-04-16T23:00:06.447Z,100.00
2023-04-16T23:06:48.593Z,100.00
2023-04-16T23:13:31.191Z,100.00
2023-04-16T23:20:14.214Z,100.00
2023-04-16T23:26:56.357Z,100.00
2023-04-16T23:33:38.538Z,100.00
2023-04-16T23:40:20.940Z,100.00
2023-04-16T23:47:03.422Z,100.00
2023-04-16T23:53:45.615Z,100.00
